createdAt,value
2018-06-10T00:01:06.083Z,90.10
2018-06-10T00:03:36.303Z,90.10
2018-06-10T00:06:05.943Z,90.10
2018-06-10T00:08:35.908Z,90.20
2018-06-10T00:11:05.762Z,90.80
2018-06-10T00:13:35.265Z,90.70
2018-06-10T00:16:05.130Z,90.80
2018-06-10T00:18:34.699Z,90.60
2018-06-10T00:21:04.867Z,90.60
2018-06-10T00:23:34.792Z,90.80
2018-06-10T00:26:05.099Z,90.80
2018-06-10T00:28:40.413Z,90.80
2018-06-10T00:31:11.947Z,91.00
2018-06-10T00:33:41.656Z,91.30
2018-06-10T00:36:10.883Z,91.40
2018-06-10T00:38:41.187Z,91.30
2018-06-10T00:44:53.625Z,92.40
2018-06-10T00:47:37.817Z,92.50
2018-06-10T01:00:02.573Z,92.60
2018-06-10T01:13:57.556Z,93.10
2018-06-10T02:05:10.499Z,92.00
2018-06-10T02:29:35.043Z,93.20
2018-06-10T02:35:13.409Z,93.50
2018-06-10T02:51:38.695Z,93.80
2018-06-10T02:57:24.129Z,92.90
2018-06-10T03:24:04.908Z,93.10
2018-06-10T03:29:47.799Z,93.20
2018-06-10T03:40:43.654Z,92.40
2018-06-10T03:43:13.027Z,92.80
2018-06-10T03:45:42.486Z,92.70
2018-06-10T03:48:11.766Z,92.40
2018-06-10T03:50:40.949Z,92.80
2018-06-10T03:53:10.258Z,92.60
2018-06-10T03:55:39.626Z,92.80
2018-06-10T03:58:09.078Z,92.30
2018-06-10T04:00:38.543Z,92.20
2018-06-10T04:03:07.770Z,92.00
2018-06-10T04:05:37.305Z,93.40
2018-06-10T04:08:06.777Z,92.50
2018-06-10T04:10:36.191Z,92.10
2018-06-10T04:13:05.467Z,91.90
2018-06-10T04:15:34.951Z,91.90
2018-06-10T04:18:04.104Z,91.90
2018-06-10T04:20:33.511Z,91.70
2018-06-10T04:23:02.958Z,91.50
2018-06-10T04:25:32.361Z,91.20
2018-06-10T04:28:01.594Z,91.00
2018-06-10T04:30:30.907Z,90.80
2018-06-10T04:33:00.574Z,90.70
2018-06-10T04:35:30.140Z,91.20
2018-06-10T04:37:59.563Z,90.90
2018-06-10T04:40:28.808Z,90.70
2018-06-10T04:42:58.066Z,90.70
2018-06-10T04:45:28.241Z,90.70
2018-06-10T04:47:58.891Z,90.60
2018-06-10T04:50:28.269Z,89.80
2018-06-10T04:52:57.582Z,89.50
2018-06-10T04:55:26.898Z,89.50
2018-06-10T04:57:56.190Z,89.60
2018-06-10T05:02:54.316Z,89.60
2018-06-10T05:05:23.708Z,89.30
2018-06-10T05:07:53.157Z,90.10
2018-06-10T05:10:22.469Z,89.10
2018-06-10T05:12:51.938Z,89.40
2018-06-10T05:15:21.387Z,90.30
2018-06-10T05:17:50.794Z,89.20
2018-06-10T05:20:20.216Z,88.50
2018-06-10T05:22:49.594Z,88.30
2018-06-10T05:25:18.995Z,88.00
2018-06-10T05:27:48.301Z,88.00
2018-06-10T05:30:18.846Z,87.50
2018-06-10T05:32:48.235Z,89.20
2018-06-10T05:35:17.571Z,88.30
2018-06-10T05:37:47.042Z,86.80
2018-06-10T05:40:16.441Z,88.00
2018-06-10T05:45:14.626Z,86.60
2018-06-10T05:47:44.011Z,85.20
2018-06-10T05:50:13.401Z,84.00
2018-06-10T05:52:42.866Z,84.00
2018-06-10T05:55:12.180Z,82.80
2018-06-10T05:57:41.556Z,82.00
2018-06-10T06:00:11.270Z,81.90
2018-06-10T06:02:40.781Z,81.30
2018-06-10T06:05:10.271Z,81.10
2018-06-10T06:07:39.570Z,80.70
2018-06-10T06:10:08.886Z,80.10
2018-06-10T06:12:38.274Z,80.20
2018-06-10T06:15:07.682Z,79.30
2018-06-10T06:17:37.662Z,78.80
2018-06-10T06:20:07.409Z,78.60
2018-06-10T06:22:36.777Z,78.20
2018-06-10T06:25:06.111Z,77.10
2018-06-10T06:27:35.705Z,76.50
2018-06-10T06:30:07.327Z,76.40
2018-06-10T06:32:36.678Z,75.10
2018-06-10T06:37:34.665Z,75.00
2018-06-10T06:40:04.279Z,74.70
2018-06-10T06:42:33.650Z,73.70
2018-06-10T06:45:02.831Z,72.70
2018-06-10T06:47:32.158Z,71.60
2018-06-10T06:50:01.868Z,72.00
2018-06-10T06:52:31.278Z,70.30
2018-06-10T06:55:00.603Z,70.00
2018-06-10T06:57:29.882Z,69.50
2018-06-10T06:59:59.157Z,68.80
2018-06-10T07:02:28.569Z,67.80
2018-06-10T07:04:57.832Z,66.90
2018-06-10T07:07:27.263Z,64.20
2018-06-10T07:09:56.682Z,63.20
2018-06-10T07:12:26.231Z,61.30
2018-06-10T07:14:55.712Z,59.30
2018-06-10T07:17:25.415Z,57.40
2018-06-10T07:19:54.764Z,54.10
2018-06-10T07:22:23.959Z,52.60
2018-06-10T07:24:53.289Z,51.20
2018-06-10T07:27:22.380Z,50.90
2018-06-10T07:29:51.807Z,49.80
2018-06-10T07:32:21.081Z,49.60
2018-06-10T07:34:50.654Z,47.70
2018-06-10T07:37:19.892Z,47.50
2018-06-10T07:39:49.174Z,46.40
2018-06-10T07:42:18.655Z,46.50
2018-06-10T07:44:47.884Z,45.90
2018-06-10T07:47:17.534Z,45.00
2018-06-10T07:49:46.959Z,42.90
2018-06-10T07:52:16.079Z,43.00
2018-06-10T07:54:46.065Z,41.80
2018-06-10T07:57:16.541Z,41.50
2018-06-10T07:59:45.814Z,40.30
2018-06-10T08:02:15.241Z,40.10
2018-06-10T08:04:44.526Z,39.40
2018-06-10T08:07:13.668Z,39.50
2018-06-10T08:09:42.933Z,38.90
2018-06-10T08:12:12.298Z,39.40
2018-06-10T08:17:10.447Z,37.80
2018-06-10T08:19:39.975Z,37.00
2018-06-10T08:22:09.411Z,37.40
2018-06-10T08:24:38.654Z,37.50
2018-06-10T08:27:07.867Z,36.50
2018-06-10T08:29:37.248Z,36.70
2018-06-10T08:32:06.613Z,36.00
2018-06-10T08:34:35.976Z,36.30
2018-06-10T08:37:05.485Z,36.20
2018-06-10T08:39:35.578Z,34.50
2018-06-10T08:42:04.839Z,35.20
2018-06-10T08:44:34.153Z,35.70
2018-06-10T08:47:03.501Z,36.00
2018-06-10T08:49:32.784Z,34.30
2018-06-10T08:52:02.013Z,33.20
2018-06-10T08:54:31.390Z,32.20
2018-06-10T08:57:01.239Z,33.00
2018-06-10T08:59:30.496Z,33.10
2018-06-10T09:01:59.692Z,33.40
2018-06-10T09:06:57.786Z,33.70
2018-06-10T09:09:27.182Z,34.30
2018-06-10T09:11:56.623Z,33.50
2018-06-10T09:14:26.368Z,34.30
2018-06-10T09:16:55.642Z,33.40
2018-06-10T09:19:25.744Z,33.00
2018-06-10T09:21:54.889Z,32.90
2018-06-10T09:24:24.308Z,32.90
2018-06-10T09:26:53.695Z,32.40
2018-06-10T09:29:23.019Z,32.50
2018-06-10T09:31:52.441Z,31.50
2018-06-10T09:34:21.662Z,32.30
2018-06-10T09:36:51.067Z,32.00
2018-06-10T09:39:20.390Z,32.30
2018-06-10T09:41:49.723Z,32.40
2018-06-10T09:44:19.066Z,31.90
2018-06-10T09:46:48.301Z,31.00
2018-06-10T09:49:17.603Z,31.80
2018-06-10T09:51:46.914Z,31.70
2018-06-10T09:54:16.345Z,30.80
2018-06-10T09:56:45.685Z,30.00
2018-06-10T09:59:15.377Z,31.00
2018-06-10T10:01:44.639Z,29.60
2018-06-10T10:04:14.057Z,28.90
2018-06-10T10:06:43.342Z,27.70
2018-06-10T10:09:12.525Z,26.60
2018-06-10T10:11:41.760Z,26.50
2018-06-10T10:14:11.107Z,26.30
2018-06-10T10:16:40.514Z,26.10
2018-06-10T10:19:09.810Z,26.40
2018-06-10T10:21:39.248Z,26.70
2018-06-10T10:24:08.579Z,26.00
2018-06-10T10:26:37.921Z,25.40
2018-06-10T10:29:07.258Z,26.20
2018-06-10T10:31:36.590Z,25.90
2018-06-10T10:34:05.755Z,25.90
2018-06-10T10:36:34.965Z,26.00
2018-06-10T10:39:05.357Z,25.60
2018-06-10T10:41:34.729Z,25.20
2018-06-10T10:44:04.101Z,24.90
2018-06-10T10:46:33.532Z,25.30
2018-06-10T10:49:02.903Z,25.40
2018-06-10T10:51:32.293Z,25.10
2018-06-10T10:54:01.544Z,25.70
2018-06-10T10:56:30.996Z,25.70
2018-06-10T10:59:00.247Z,25.70
2018-06-10T11:01:29.615Z,25.50
2018-06-10T11:03:58.928Z,26.30
2018-06-10T11:06:28.187Z,25.90
2018-06-10T11:08:57.589Z,26.10
2018-06-10T11:11:26.990Z,26.20
2018-06-10T11:13:56.299Z,26.50
2018-06-10T11:16:25.668Z,27.50
2018-06-10T11:18:54.911Z,28.00
2018-06-10T11:21:24.163Z,28.60
2018-06-10T11:23:53.537Z,29.20
2018-06-10T11:26:22.964Z,29.50
2018-06-10T11:28:52.398Z,30.90
2018-06-10T11:31:21.696Z,30.50
2018-06-10T11:33:50.895Z,31.10
2018-06-10T11:36:20.142Z,32.30
2018-06-10T11:38:49.534Z,33.40
2018-06-10T11:41:18.888Z,34.40
2018-06-10T11:43:48.040Z,34.60
2018-06-10T11:46:17.318Z,35.50
2018-06-10T11:48:46.679Z,37.00
2018-06-10T11:51:15.983Z,37.10
2018-06-10T11:53:45.890Z,39.20
2018-06-10T11:56:15.248Z,39.80
2018-06-10T11:58:44.531Z,40.30
2018-06-10T12:01:13.929Z,41.00
2018-06-10T12:03:43.133Z,42.40
2018-06-10T12:06:12.448Z,42.80
2018-06-10T12:08:41.839Z,43.50
2018-06-10T12:11:11.143Z,43.40
2018-06-10T12:13:40.466Z,43.70
2018-06-10T12:16:09.823Z,43.90
2018-06-10T12:18:39.124Z,43.90
2018-06-10T12:21:08.509Z,43.80
2018-06-10T12:23:37.680Z,44.50
2018-06-10T12:26:07.056Z,44.30
2018-06-10T12:28:36.561Z,44.00
2018-06-10T12:31:07.639Z,44.80
2018-06-10T12:33:37.360Z,47.70
2018-06-10T12:36:11.438Z,47.60
2018-06-10T12:38:41.448Z,48.00
2018-06-10T12:41:11.787Z,49.70
2018-06-10T12:43:42.305Z,50.00
2018-06-10T12:46:12.420Z,51.10
2018-06-10T12:48:44.080Z,51.20
2018-06-10T12:51:14.026Z,51.50
2018-06-10T12:53:43.844Z,52.20
2018-06-10T12:56:13.676Z,52.40
2018-06-10T12:58:46.017Z,52.60
2018-06-10T13:01:19.050Z,52.60
2018-06-10T13:06:18.466Z,52.70
2018-06-10T13:08:49.132Z,52.60
2018-06-10T13:11:24.264Z,51.90
2018-06-10T13:13:55.821Z,52.10
2018-06-10T13:16:30.326Z,49.50
2018-06-10T13:19:01.133Z,49.10
2018-06-10T13:21:32.043Z,49.20
2018-06-10T13:24:03.146Z,49.20
2018-06-10T13:26:34.946Z,50.70
2018-06-10T13:29:05.335Z,51.20
2018-06-10T13:31:35.206Z,51.30
2018-06-10T13:34:05.714Z,50.70
2018-06-10T13:36:35.214Z,50.60
2018-06-10T13:39:08.117Z,51.10
2018-06-10T13:41:37.908Z,50.10
2018-06-10T13:44:07.582Z,49.80
2018-06-10T13:46:37.574Z,49.70
2018-06-10T13:49:07.050Z,47.70
2018-06-10T13:51:36.728Z,44.30
2018-06-10T13:54:06.333Z,44.30
2018-06-10T13:56:36.622Z,44.00
2018-06-10T13:59:07.608Z,44.10
2018-06-10T14:01:37.424Z,45.40
2018-06-10T14:04:07.312Z,45.50
2018-06-10T14:06:37.216Z,46.50
2018-06-10T14:09:13.048Z,45.50
2018-06-10T14:11:59.019Z,45.60
2018-06-10T14:14:28.952Z,45.90
2018-06-10T14:17:02.788Z,46.40
2018-06-10T14:19:33.808Z,46.10
2018-06-10T14:22:18.029Z,45.90
2018-06-10T14:24:50.236Z,46.30
2018-06-10T14:27:23.593Z,47.10
2018-06-10T14:29:53.781Z,47.50
2018-06-10T14:32:24.116Z,47.70
2018-06-10T14:34:55.027Z,47.00
2018-06-10T14:40:09.443Z,47.20
2018-06-10T14:42:45.368Z,47.00
2018-06-10T14:45:16.179Z,46.40
2018-06-10T14:48:03.791Z,46.30
2018-06-10T14:50:37.806Z,45.50
2018-06-10T14:53:32.112Z,46.00
2018-06-10T14:56:50.305Z,46.30
2018-06-10T15:37:20.743Z,43.10
2018-06-10T16:35:25.979Z,50.70
2018-06-10T16:37:55.406Z,50.90
2018-06-10T16:40:24.925Z,51.00
2018-06-10T16:42:54.198Z,51.80
2018-06-10T16:45:23.738Z,51.30
2018-06-10T16:47:53.736Z,51.40
2018-06-10T16:50:23.193Z,51.80
2018-06-10T16:52:52.526Z,52.20
2018-06-10T16:55:21.873Z,52.50
2018-06-10T16:57:51.354Z,52.80
2018-06-10T17:00:20.712Z,53.30
2018-06-10T17:02:49.995Z,53.40
2018-06-10T17:05:19.503Z,53.80
2018-06-10T17:07:48.837Z,54.00
2018-06-10T17:10:18.625Z,53.90
2018-06-10T17:12:47.896Z,54.10
2018-06-10T17:15:17.268Z,54.40
2018-06-10T17:17:46.587Z,54.50
2018-06-10T17:20:15.924Z,54.60
2018-06-10T17:22:45.543Z,54.50
2018-06-10T17:25:14.970Z,54.40
2018-06-10T17:27:44.344Z,54.30
2018-06-10T17:30:13.693Z,54.30
2018-06-10T17:32:43.035Z,54.40
2018-06-10T17:35:12.464Z,54.50
2018-06-10T17:37:41.775Z,54.30
2018-06-10T17:40:11.173Z,54.40
2018-06-10T17:42:41.471Z,54.50
2018-06-10T17:45:10.721Z,54.60
2018-06-10T17:47:40.114Z,54.60
2018-06-10T17:50:13.242Z,54.80
2018-06-10T17:52:43.179Z,54.70
2018-06-10T17:55:14.801Z,54.70
2018-06-10T17:57:44.189Z,54.70
2018-06-10T18:00:14.357Z,54.60
2018-06-10T18:02:48.929Z,55.00
2018-06-10T18:05:22.667Z,55.20
2018-06-10T18:07:56.394Z,55.10
2018-06-10T18:10:26.529Z,55.10
2018-06-10T18:12:56.198Z,55.60
2018-06-10T18:15:25.554Z,55.60
2018-06-10T18:18:00.498Z,55.80
2018-06-10T18:20:30.265Z,56.00
2018-06-10T18:22:59.614Z,56.00
2018-06-10T18:25:29.199Z,56.30
2018-06-10T18:28:01.571Z,56.20
2018-06-10T18:30:31.498Z,56.30
2018-06-10T18:33:00.755Z,56.40
2018-06-10T18:35:30.000Z,56.30
2018-06-10T18:37:59.467Z,56.30
2018-06-10T18:40:29.386Z,56.50
2018-06-10T18:42:59.592Z,56.70
2018-06-10T18:45:29.688Z,56.90
2018-06-10T18:47:59.245Z,56.90
2018-06-10T18:50:28.678Z,57.30
2018-06-10T18:52:58.286Z,57.40
2018-06-10T18:55:27.734Z,57.80
2018-06-10T18:57:57.086Z,58.70
2018-06-10T19:00:26.546Z,58.70
2018-06-10T19:02:56.597Z,58.90
2018-06-10T19:05:25.987Z,59.10
2018-06-10T19:07:55.181Z,59.40
2018-06-10T19:10:24.531Z,59.20
2018-06-10T19:12:53.955Z,58.70
2018-06-10T19:15:23.324Z,58.80
2018-06-10T19:17:52.637Z,58.90
2018-06-10T19:20:22.111Z,58.90
2018-06-10T19:22:51.407Z,59.00
2018-06-10T19:25:20.666Z,59.20
2018-06-10T19:27:49.994Z,59.30
2018-06-10T19:30:19.179Z,59.40
2018-06-10T19:32:48.467Z,59.70
2018-06-10T19:35:18.058Z,60.10
2018-06-10T19:37:48.821Z,60.40
2018-06-10T19:40:18.226Z,61.10
2018-06-10T19:42:48.050Z,62.50
2018-06-10T19:45:18.426Z,64.00
2018-06-10T19:47:47.859Z,64.90
2018-06-10T19:50:17.335Z,65.70
2018-06-10T19:52:47.334Z,66.00
2018-06-10T19:55:17.018Z,66.50
2018-06-10T19:57:46.907Z,67.30
2018-06-10T20:00:16.291Z,68.80
2018-06-10T20:02:45.674Z,69.20
2018-06-10T20:05:14.954Z,69.80
2018-06-10T20:07:44.508Z,70.50
2018-06-10T20:10:13.870Z,70.80
2018-06-10T20:12:43.167Z,71.30
2018-06-10T20:15:12.570Z,71.90
2018-06-10T20:17:41.905Z,72.10
2018-06-10T20:20:12.583Z,72.30
2018-06-10T20:22:42.142Z,72.50
2018-06-10T20:25:11.680Z,73.10
2018-06-10T20:27:40.813Z,73.10
2018-06-10T20:30:10.309Z,73.50
2018-06-10T20:32:40.109Z,73.60
2018-06-10T20:35:09.607Z,73.40
2018-06-10T20:37:39.270Z,73.40
2018-06-10T20:40:08.584Z,73.10
2018-06-10T20:42:38.628Z,74.00
2018-06-10T20:47:36.802Z,74.00
2018-06-10T20:50:06.338Z,74.00
2018-06-10T20:52:35.411Z,75.00
2018-06-10T20:55:05.011Z,74.90
2018-06-10T20:57:34.232Z,74.40
2018-06-10T21:00:03.536Z,74.50
2018-06-10T21:02:33.022Z,74.50
2018-06-10T21:05:03.170Z,74.40
2018-06-10T21:07:32.429Z,74.50
2018-06-10T21:10:02.799Z,75.00
2018-06-10T21:12:32.158Z,75.40
2018-06-10T21:15:01.563Z,75.80
2018-06-10T21:17:30.855Z,76.00
2018-06-10T21:20:00.074Z,76.00
2018-06-10T21:22:29.396Z,75.70
2018-06-10T21:24:58.791Z,74.70
2018-06-10T21:27:28.028Z,74.90
2018-06-10T21:29:57.777Z,75.30
2018-06-10T21:32:27.149Z,74.80
2018-06-10T21:34:56.462Z,74.10
2018-06-10T21:37:26.111Z,73.80
2018-06-10T21:39:55.799Z,73.80
2018-06-10T21:44:53.822Z,74.60
2018-06-10T21:47:23.196Z,74.00
2018-06-10T21:49:52.850Z,74.20
2018-06-10T21:52:22.239Z,74.60
2018-06-10T21:54:51.651Z,74.80
2018-06-10T21:57:21.049Z,74.90
2018-06-10T21:59:50.525Z,75.20
2018-06-10T22:02:20.051Z,75.40
2018-06-10T22:04:49.459Z,75.60
2018-06-10T22:07:18.894Z,76.30
2018-06-10T22:09:48.273Z,76.60
2018-06-10T22:12:17.799Z,77.00
2018-06-10T22:14:49.795Z,77.90
2018-06-10T22:17:19.327Z,78.00
2018-06-10T22:19:48.744Z,80.50
2018-06-10T22:22:18.108Z,82.50
2018-06-10T22:24:47.834Z,82.50
2018-06-10T22:27:17.317Z,82.90
2018-06-10T22:32:15.438Z,81.20
2018-06-10T22:34:44.840Z,81.00
2018-06-10T22:37:14.528Z,81.10
2018-06-10T22:39:43.958Z,81.20
2018-06-10T22:42:13.356Z,81.30
2018-06-10T22:44:43.040Z,81.60
2018-06-10T22:47:12.556Z,81.80
2018-06-10T22:49:41.968Z,82.40
2018-06-10T22:52:11.466Z,83.00
2018-06-10T22:54:42.296Z,83.60
2018-06-10T22:57:11.641Z,83.90
2018-06-10T22:59:41.219Z,84.10
2018-06-10T23:02:11.225Z,85.10
2018-06-10T23:04:40.492Z,85.70
2018-06-10T23:07:09.913Z,86.90
2018-06-10T23:09:39.704Z,87.60
2018-06-10T23:12:09.079Z,88.40
2018-06-10T23:14:38.457Z,89.00
2018-06-10T23:17:07.828Z,89.50
2018-06-10T23:19:37.169Z,89.60
2018-06-10T23:22:06.462Z,89.80
2018-06-10T23:24:36.926Z,90.00
2018-06-10T23:27:06.273Z,90.20
2018-06-10T23:29:35.603Z,90.30
2018-06-10T23:32:04.950Z,90.30
2018-06-10T23:34:34.266Z,90.40
2018-06-10T23:37:03.550Z,90.50
2018-06-10T23:39:32.978Z,90.60
2018-06-10T23:42:02.310Z,90.70
2018-06-10T23:44:31.854Z,90.70
2018-06-10T23:47:01.173Z,90.70
2018-06-10T23:49:30.523Z,90.70
2018-06-10T23:52:00.024Z,90.70
2018-06-10T23:54:29.318Z,90.80
2018-06-10T23:56:58.640Z,90.80
2018-06-10T23:59:27.986Z,91.00
